TimeEDT,TemperatureF,Dew PointF,Humidity,Sea Level PressureIn,VisibilityMPH,Wind Direction,Wind SpeedMPH,Gust SpeedMPH,PrecipitationIn,Events,Conditions,WindDirDegrees,DateUTC
12:15 AM,72.1,70.0,93,30.23,10.0,Calm,Calm,-,N/A,,Clear,0,2013-07-14 04:15:00
12:35 AM,72.0,69.8,93,30.23,10.0,Calm,Calm,-,N/A,,Clear,0,2013-07-14 04:35:00
12:55 AM,71.6,69.6,93,30.23,10.0,Calm,Calm,-,N/A,,Clear,0,2013-07-14 04:55:00
1:15 AM,71.6,69.4,93,30.23,10.0,Calm,Calm,-,N/A,,Clear,0,2013-07-14 05:15:00
1:35 AM,71.6,69.8,94,30.23,10.0,Calm,Calm,-,N/A,,Clear,0,2013-07-14 05:35:00
1:55 AM,71.8,69.8,93,30.23,10.0,Calm,Calm,-,N/A,,Clear,0,2013-07-14 05:55:00
2:15 AM,71.8,69.8,93,30.23,10.0,Calm,Calm,-,N/A,,Clear,0,2013-07-14 06:15:00
2:35 AM,71.4,69.3,93,30.23,7.0,Calm,Calm,-,N/A,,Clear,0,2013-07-14 06:35:00
2:55 AM,71.1,69.1,93,30.23,7.0,ENE,3.5,-,N/A,,Clear,70,2013-07-14 06:55:00
3:15 AM,71.4,69.6,94,30.23,7.0,Calm,Calm,-,N/A,,Clear,0,2013-07-14 07:15:00
3:35 AM,71.2,69.4,94,30.23,3.0,Calm,Calm,-,N/A,,Clear,0,2013-07-14 07:35:00
3:55 AM,71.1,69.3,94,30.23,5.0,ENE,3.5,-,N/A,,Clear,70,2013-07-14 07:55:00
4:15 AM,70.9,69.3,95,30.23,5.0,East,3.5,-,N/A,,Clear,80,2013-07-14 08:15:00
4:35 AM,71.4,69.8,95,30.23,7.0,Calm,Calm,-,N/A,,Clear,0,2013-07-14 08:35:00
4:55 AM,71.1,69.4,95,30.24,2.5,Calm,Calm,-,N/A,,Clear,0,2013-07-14 08:55:00
5:15 AM,71.4,69.6,94,30.25,7.0,Calm,Calm,-,N/A,,Clear,0,2013-07-14 09:15:00
5:35 AM,71.4,69.8,95,30.25,5.0,Calm,Calm,-,N/A,,Clear,0,2013-07-14 09:35:00
5:55 AM,71.4,69.8,95,30.26,5.0,Calm,Calm,-,N/A,,Clear,0,2013-07-14 09:55:00
6:15 AM,71.1,69.4,95,30.26,1.2,Calm,Calm,-,N/A,,Overcast,0,2013-07-14 10:15:00
6:35 AM,71.4,69.8,95,30.26,4.0,Calm,Calm,-,N/A,,Scattered Clouds,0,2013-07-14 10:35:00
6:55 AM,72.1,70.5,95,30.27,5.0,Calm,Calm,-,N/A,,Clear,0,2013-07-14 10:55:00
7:15 AM,73.2,71.8,95,30.27,7.0,East,3.5,-,N/A,,Clear,80,2013-07-14 11:15:00
7:35 AM,74.7,72.9,94,30.28,10.0,East,3.5,-,N/A,,Clear,80,2013-07-14 11:35:00
7:55 AM,75.7,73.4,92,30.28,10.0,East,3.5,-,N/A,,Clear,100,2013-07-14 11:55:00
8:15 AM,77.2,73.8,89,30.29,10.0,Calm,Calm,-,N/A,,Scattered Clouds,0,2013-07-14 12:15:00
8:35 AM,78.8,74.1,85,30.29,10.0,East,3.5,-,N/A,,Scattered Clouds,90,2013-07-14 12:35:00
8:55 AM,80.2,74.5,83,30.30,10.0,East,3.5,-,N/A,,Scattered Clouds,90,2013-07-14 12:55:00
9:15 AM,81.0,74.3,80,30.30,10.0,ESE,6.9,-,N/A,,Mostly Cloudy,110,2013-07-14 13:15:00
9:35 AM,81.7,74.5,79,30.30,10.0,ESE,4.6,-,N/A,,Mostly Cloudy,110,2013-07-14 13:35:00
9:55 AM,81.7,74.1,78,30.30,10.0,SE,3.5,-,N/A,,Overcast,130,2013-07-14 13:55:00
10:15 AM,82.8,74.1,75,30.30,10.0,SE,3.5,-,N/A,,Mostly Cloudy,140,2013-07-14 14:15:00
10:35 AM,81.5,73.8,77,30.30,10.0,Calm,Calm,-,0.01,,Overcast,0,2013-07-14 14:35:00
10:55 AM,83.3,74.5,75,30.30,10.0,ESE,5.8,-,0.01,,Mostly Cloudy,120,2013-07-14 14:55:00
11:15 AM,84.7,73.8,69,30.30,10.0,Calm,Calm,-,N/A,,Scattered Clouds,0,2013-07-14 15:15:00
11:35 AM,85.5,73.9,68,30.30,10.0,East,4.6,-,N/A,,Scattered Clouds,80,2013-07-14 15:35:00
11:55 AM,86.5,73.0,64,30.30,10.0,East,5.8,-,N/A,,Scattered Clouds,80,2013-07-14 15:55:00
12:15 PM,86.7,73.2,64,30.30,10.0,NE,4.6,-,N/A,,Scattered Clouds,50,2013-07-14 16:15:00
12:35 PM,86.9,73.4,64,30.30,10.0,ESE,4.6,-,N/A,,Scattered Clouds,120,2013-07-14 16:35:00
12:55 PM,86.5,73.4,65,30.30,10.0,ENE,6.9,-,N/A,,Scattered Clouds,70,2013-07-14 16:55:00
1:15 PM,86.9,73.0,63,30.30,10.0,East,5.8,-,N/A,,Clear,80,2013-07-14 17:15:00
1:35 PM,87.3,73.0,62,30.30,10.0,SE,6.9,-,N/A,,Scattered Clouds,130,2013-07-14 17:35:00
1:55 PM,87.3,72.0,60,30.29,10.0,East,5.8,-,N/A,,Scattered Clouds,90,2013-07-14 17:55:00
2:15 PM,88.3,71.8,58,30.28,10.0,East,5.8,-,N/A,,Scattered Clouds,100,2013-07-14 18:15:00
2:35 PM,88.2,71.1,57,30.28,10.0,East,5.8,-,N/A,,Scattered Clouds,90,2013-07-14 18:35:00
2:55 PM,86.9,71.2,59,30.28,10.0,ESE,3.5,-,N/A,,Mostly Cloudy,110,2013-07-14 18:55:00
3:15 PM,88.0,71.4,58,30.27,10.0,East,6.9,-,N/A,,Scattered Clouds,100,2013-07-14 19:15:00
3:35 PM,88.9,72.0,57,30.27,10.0,ESE,4.6,-,N/A,,Clear,120,2013-07-14 19:35:00
3:55 PM,86.7,72.5,62,30.27,10.0,East,9.2,-,N/A,Rain,Light Rain,90,2013-07-14 19:55:00
4:15 PM,86.7,73.0,64,30.26,10.0,ESE,6.9,-,N/A,,Scattered Clouds,110,2013-07-14 20:15:00
4:35 PM,88.2,72.9,60,30.26,10.0,East,8.1,-,N/A,,Clear,100,2013-07-14 20:35:00
4:55 PM,88.2,72.1,59,30.25,10.0,ENE,5.8,-,N/A,,Clear,60,2013-07-14 20:55:00
5:15 PM,88.7,72.5,59,30.25,10.0,East,3.5,-,N/A,,Scattered Clouds,80,2013-07-14 21:15:00
5:35 PM,88.3,72.1,59,30.25,10.0,East,4.6,-,N/A,,Scattered Clouds,80,2013-07-14 21:35:00
5:55 PM,87.1,73.0,63,30.25,10.0,ENE,8.1,16.1,N/A,,Mostly Cloudy,70,2013-07-14 21:55:00
6:15 PM,83.8,73.6,71,30.25,10.0,ENE,5.8,-,N/A,,Scattered Clouds,60,2013-07-14 22:15:00
6:35 PM,84.6,74.1,71,30.26,10.0,ENE,4.6,-,N/A,,Clear,70,2013-07-14 22:35:00
6:55 PM,84.9,74.3,70,30.26,10.0,ENE,4.6,-,N/A,,Clear,60,2013-07-14 22:55:00
7:15 PM,84.9,74.1,70,30.26,10.0,ENE,3.5,-,N/A,,Clear,60,2013-07-14 23:15:00
7:35 PM,83.1,74.8,76,30.26,10.0,ENE,3.5,-,N/A,,Clear,60,2013-07-14 23:35:00
7:55 PM,82.2,75.2,79,30.27,10.0,ESE,3.5,-,N/A,,Scattered Clouds,110,2013-07-14 23:55:00
8:15 PM,81.3,75.0,81,30.27,10.0,East,3.5,-,N/A,,Scattered Clouds,100,2013-07-15 00:15:00
8:35 PM,80.6,74.3,81,30.27,7.0,East,4.6,-,N/A,,Clear,90,2013-07-15 00:35:00
8:55 PM,79.9,74.3,83,30.28,10.0,East,4.6,-,N/A,,Clear,90,2013-07-15 00:55:00
9:15 PM,79.2,74.1,84,30.28,10.0,Calm,Calm,-,N/A,,Clear,0,2013-07-15 01:15:00
9:35 PM,78.3,73.9,87,30.29,10.0,Calm,Calm,-,N/A,,Clear,0,2013-07-15 01:35:00
9:55 PM,77.7,73.8,88,30.29,10.0,Calm,Calm,-,N/A,,Clear,0,2013-07-15 01:55:00
10:15 PM,77.4,73.8,89,30.29,10.0,Calm,Calm,-,N/A,,Clear,0,2013-07-15 02:15:00
10:35 PM,77.0,73.6,89,30.30,10.0,Calm,Calm,-,N/A,,Clear,0,2013-07-15 02:35:00
10:55 PM,76.6,73.4,90,30.30,10.0,Calm,Calm,-,N/A,,Clear,0,2013-07-15 02:55:00
11:15 PM,76.1,73.2,91,30.30,10.0,Calm,Calm,-,N/A,,Clear,0,2013-07-15 03:15:00
11:35 PM,75.2,72.9,92,30.30,10.0,Calm,Calm,-,N/A,,Clear,0,2013-07-15 03:35:00
11:55 PM,74.8,72.7,93,30.30,5.0,Calm,Calm,-,N/A,,Clear,0,2013-07-15 03:55:00